sensor_id;sensor_type;location;lat;lon;timestamp;temperature;humidity
47961;DHT22;33721;48.852;9.936;2023-03-25T00:01:06;8.40;99.90
47961;DHT22;33721;48.852;9.936;2023-03-25T00:03:39;8.40;99.90
47961;DHT22;33721;48.852;9.936;2023-03-25T00:06:09;8.40;99.90
47961;DHT22;33721;48.852;9.936;2023-03-25T00:08:36;8.40;99.90
47961;DHT22;33721;48.852;9.936;2023-03-25T00:11:03;8.40;99.90
47961;DHT22;33721;48.852;9.936;2023-03-25T00:13:29;8.40;99.90
47961;DHT22;33721;48.852;9.936;2023-03-25T00:15:59;8.30;99.90
47961;DHT22;33721;48.852;9.936;2023-03-25T00:18:27;8.30;99.90
47961;DHT22;33721;48.852;9.936;2023-03-25T00:21:01;8.30;99.90
47961;DHT22;33721;48.852;9.936;2023-03-25T00:23:28;8.20;99.90
47961;DHT22;33721;48.852;9.936;2023-03-25T00:25:54;8.20;99.90
47961;DHT22;33721;48.852;9.936;2023-03-25T00:28:26;8.20;99.90
47961;DHT22;33721;48.852;9.936;2023-03-25T00:30:53;8.20;99.90
47961;DHT22;33721;48.852;9.936;2023-03-25T00:33:19;8.20;99.90
47961;DHT22;33721;48.852;9.936;2023-03-25T00:35:51;8.20;99.90
47961;DHT22;33721;48.852;9.936;2023-03-25T00:38:19;8.20;99.90
47961;DHT22;33721;48.852;9.936;2023-03-25T00:40:44;8.10;99.90
47961;DHT22;33721;48.852;9.936;2023-03-25T00:43:11;8.10;99.90
47961;DHT22;33721;48.852;9.936;2023-03-25T00:45:37;8.00;99.90
47961;DHT22;33721;48.852;9.936;2023-03-25T00:48:02;8.00;99.90
47961;DHT22;33721;48.852;9.936;2023-03-25T00:50:28;7.90;99.90
47961;DHT22;33721;48.852;9.936;2023-03-25T00:52:54;7.90;99.90
47961;DHT22;33721;48.852;9.936;2023-03-25T00:55:20;7.80;99.90
47961;DHT22;33721;48.852;9.936;2023-03-25T00:57:46;7.70;99.90
47961;DHT22;33721;48.852;9.936;2023-03-25T01:00:14;7.60;99.90
47961;DHT22;33721;48.852;9.936;2023-03-25T01:02:40;7.60;99.90
47961;DHT22;33721;48.852;9.936;2023-03-25T01:05:07;7.50;99.90
47961;DHT22;33721;48.852;9.936;2023-03-25T01:07:35;7.50;99.90
47961;DHT22;33721;48.852;9.936;2023-03-25T01:10:01;7.40;99.90
47961;DHT22;33721;48.852;9.936;2023-03-25T01:12:27;7.40;99.90
47961;DHT22;33721;48.852;9.936;2023-03-25T01:14:53;7.40;99.90
47961;DHT22;33721;48.852;9.936;2023-03-25T01:17:19;7.30;99.90
47961;DHT22;33721;48.852;9.936;2023-03-25T01:19:45;7.40;99.90
47961;DHT22;33721;48.852;9.936;2023-03-25T01:22:10;7.40;99.90
47961;DHT22;33721;48.852;9.936;2023-03-25T01:24:36;7.40;99.90
47961;DHT22;33721;48.852;9.936;2023-03-25T01:27:02;7.40;99.90
47961;DHT22;33721;48.852;9.936;2023-03-25T01:29:28;7.40;99.90
47961;DHT22;33721;48.852;9.936;2023-03-25T01:31:54;7.30;99.90
47961;DHT22;33721;48.852;9.936;2023-03-25T01:34:19;7.30;99.90
47961;DHT22;33721;48.852;9.936;2023-03-25T01:36:45;7.30;99.90
47961;DHT22;33721;48.852;9.936;2023-03-25T01:39:12;7.20;99.90
47961;DHT22;33721;48.852;9.936;2023-03-25T01:41:43;7.20;99.90
47961;DHT22;33721;48.852;9.936;2023-03-25T01:46:40;7.00;99.90
47961;DHT22;33721;48.852;9.936;2023-03-25T01:49:13;6.90;99.90
47961;DHT22;33721;48.852;9.936;2023-03-25T01:51:43;6.90;99.90
47961;DHT22;33721;48.852;9.936;2023-03-25T01:54:11;6.90;99.90
47961;DHT22;33721;48.852;9.936;2023-03-25T01:56:42;6.90;99.90
47961;DHT22;33721;48.852;9.936;2023-03-25T01:59:11;6.80;99.90
47961;DHT22;33721;48.852;9.936;2023-03-25T02:01:37;6.70;99.90
47961;DHT22;33721;48.852;9.936;2023-03-25T02:04:03;6.70;99.90
47961;DHT22;33721;48.852;9.936;2023-03-25T02:06:50;6.60;99.90
47961;DHT22;33721;48.852;9.936;2023-03-25T02:09:22;6.60;99.90
47961;DHT22;33721;48.852;9.936;2023-03-25T02:11:49;6.60;99.90
47961;DHT22;33721;48.852;9.936;2023-03-25T02:14:18;6.60;99.90
47961;DHT22;33721;48.852;9.936;2023-03-25T02:22:16;6.60;99.90
47961;DHT22;33721;48.852;9.936;2023-03-25T02:24:58;6.60;99.90
47961;DHT22;33721;48.852;9.936;2023-03-25T02:27:46;6.70;99.90
47961;DHT22;33721;48.852;9.936;2023-03-25T02:33:22;6.70;99.90
47961;DHT22;33721;48.852;9.936;2023-03-25T02:36:20;6.90;99.90
47961;DHT22;33721;48.852;9.936;2023-03-25T02:44:13;6.90;99.90
47961;DHT22;33721;48.852;9.936;2023-03-25T02:46:48;6.90;99.90
47961;DHT22;33721;48.852;9.936;2023-03-25T02:49:24;6.90;99.90
47961;DHT22;33721;48.852;9.936;2023-03-25T02:52:09;6.90;99.90
47961;DHT22;33721;48.852;9.936;2023-03-25T02:54:36;6.90;99.90
47961;DHT22;33721;48.852;9.936;2023-03-25T02:57:05;6.90;99.90
47961;DHT22;33721;48.852;9.936;2023-03-25T02:59:33;6.90;99.90
47961;DHT22;33721;48.852;9.936;2023-03-25T03:02:05;7.00;99.90
47961;DHT22;33721;48.852;9.936;2023-03-25T03:04:43;6.90;99.90
47961;DHT22;33721;48.852;9.936;2023-03-25T03:07:09;7.00;99.90
47961;DHT22;33721;48.852;9.936;2023-03-25T03:09:44;7.00;99.90
47961;DHT22;33721;48.852;9.936;2023-03-25T03:12:23;7.10;99.90
47961;DHT22;33721;48.852;9.936;2023-03-25T03:18:06;7.10;99.90
47961;DHT22;33721;48.852;9.936;2023-03-25T03:20:39;7.20;99.90
47961;DHT22;33721;48.852;9.936;2023-03-25T03:23:24;7.20;99.90
47961;DHT22;33721;48.852;9.936;2023-03-25T03:28:52;7.30;99.90
47961;DHT22;33721;48.852;9.936;2023-03-25T03:31:26;7.30;99.90
47961;DHT22;33721;48.852;9.936;2023-03-25T03:33:59;7.30;99.90
47961;DHT22;33721;48.852;9.936;2023-03-25T03:36:37;7.50;99.90
47961;DHT22;33721;48.852;9.936;2023-03-25T03:39:12;7.50;99.90
47961;DHT22;33721;48.852;9.936;2023-03-25T03:41:46;7.40;99.90
47961;DHT22;33721;48.852;9.936;2023-03-25T03:44:21;7.40;99.90
47961;DHT22;33721;48.852;9.936;2023-03-25T03:46:53;7.30;99.90
47961;DHT22;33721;48.852;9.936;2023-03-25T03:49:27;7.30;99.90
47961;DHT22;33721;48.852;9.936;2023-03-25T03:52:04;7.20;99.90
47961;DHT22;33721;48.852;9.936;2023-03-25T03:54:41;7.20;99.90
47961;DHT22;33721;48.852;9.936;2023-03-25T03:57:19;7.10;99.90
47961;DHT22;33721;48.852;9.936;2023-03-25T04:02:27;7.00;99.90
47961;DHT22;33721;48.852;9.936;2023-03-25T04:04:54;6.90;99.90
47961;DHT22;33721;48.852;9.936;2023-03-25T04:07:39;6.80;99.90
47961;DHT22;33721;48.852;9.936;2023-03-25T04:10:15;6.70;99.90
47961;DHT22;33721;48.852;9.936;2023-03-25T04:12:46;6.80;99.90
47961;DHT22;33721;48.852;9.936;2023-03-25T04:15:14;6.70;99.90
47961;DHT22;33721;48.852;9.936;2023-03-25T04:17:41;6.70;99.90
47961;DHT22;33721;48.852;9.936;2023-03-25T04:20:12;6.70;99.90
47961;DHT22;33721;48.852;9.936;2023-03-25T04:22:38;6.70;99.90
47961;DHT22;33721;48.852;9.936;2023-03-25T04:25:07;6.70;99.90
47961;DHT22;33721;48.852;9.936;2023-03-25T04:27:33;6.70;99.90
47961;DHT22;33721;48.852;9.936;2023-03-25T04:30:03;6.50;99.90
47961;DHT22;33721;48.852;9.936;2023-03-25T04:32:29;6.50;99.90
47961;DHT22;33721;48.852;9.936;2023-03-25T04:34:55;6.50;99.90
47961;DHT22;33721;48.852;9.936;2023-03-25T04:37:23;6.50;99.90
47961;DHT22;33721;48.852;9.936;2023-03-25T04:39:50;6.40;99.90
47961;DHT22;33721;48.852;9.936;2023-03-25T04:42:18;6.40;99.90
47961;DHT22;33721;48.852;9.936;2023-03-25T04:44:44;6.30;99.90
47961;DHT22;33721;48.852;9.936;2023-03-25T04:47:12;6.30;99.90
47961;DHT22;33721;48.852;9.936;2023-03-25T04:49:39;6.30;99.90
47961;DHT22;33721;48.852;9.936;2023-03-25T04:52:09;6.30;99.90
47961;DHT22;33721;48.852;9.936;2023-03-25T04:54:35;6.20;99.90
47961;DHT22;33721;48.852;9.936;2023-03-25T04:57:02;6.10;99.90
47961;DHT22;33721;48.852;9.936;2023-03-25T04:59:28;6.10;99.90
47961;DHT22;33721;48.852;9.936;2023-03-25T05:01:55;6.10;99.90
47961;DHT22;33721;48.852;9.936;2023-03-25T05:04:20;6.10;99.90
47961;DHT22;33721;48.852;9.936;2023-03-25T05:06:49;6.10;99.90
47961;DHT22;33721;48.852;9.936;2023-03-25T05:09:19;6.10;99.90
47961;DHT22;33721;48.852;9.936;2023-03-25T05:11:49;6.10;99.90
47961;DHT22;33721;48.852;9.936;2023-03-25T05:14:17;6.10;99.90
47961;DHT22;33721;48.852;9.936;2023-03-25T05:16:44;6.10;99.90
47961;DHT22;33721;48.852;9.936;2023-03-25T05:19:10;6.10;99.90
47961;DHT22;33721;48.852;9.936;2023-03-25T05:21:37;6.00;99.90
47961;DHT22;33721;48.852;9.936;2023-03-25T05:24:04;5.90;99.90
47961;DHT22;33721;48.852;9.936;2023-03-25T05:26:33;6.00;99.90
47961;DHT22;33721;48.852;9.936;2023-03-25T05:29:10;6.00;99.90
47961;DHT22;33721;48.852;9.936;2023-03-25T05:31:43;6.00;99.90
47961;DHT22;33721;48.852;9.936;2023-03-25T05:34:10;6.00;99.90
47961;DHT22;33721;48.852;9.936;2023-03-25T05:36:35;6.00;99.90
47961;DHT22;33721;48.852;9.936;2023-03-25T05:39:02;6.00;99.90
47961;DHT22;33721;48.852;9.936;2023-03-25T05:41:29;6.00;99.90
47961;DHT22;33721;48.852;9.936;2023-03-25T05:44:04;6.00;99.90
47961;DHT22;33721;48.852;9.936;2023-03-25T05:46:29;5.90;99.90
47961;DHT22;33721;48.852;9.936;2023-03-25T05:48:55;6.00;99.90
47961;DHT22;33721;48.852;9.936;2023-03-25T05:51:26;6.00;99.90
47961;DHT22;33721;48.852;9.936;2023-03-25T05:53:52;6.10;99.90
47961;DHT22;33721;48.852;9.936;2023-03-25T05:56:21;6.10;99.90
47961;DHT22;33721;48.852;9.936;2023-03-25T05:58:49;6.10;99.90
47961;DHT22;33721;48.852;9.936;2023-03-25T06:01:17;6.20;99.90
47961;DHT22;33721;48.852;9.936;2023-03-25T06:03:43;6.30;99.90
47961;DHT22;33721;48.852;9.936;2023-03-25T06:06:10;6.40;99.90
47961;DHT22;33721;48.852;9.936;2023-03-25T06:08:49;6.40;99.90
47961;DHT22;33721;48.852;9.936;2023-03-25T06:11:16;6.50;99.90
47961;DHT22;33721;48.852;9.936;2023-03-25T06:13:42;6.50;99.90
47961;DHT22;33721;48.852;9.936;2023-03-25T06:16:24;6.50;99.90
47961;DHT22;33721;48.852;9.936;2023-03-25T06:18:54;6.50;99.90
47961;DHT22;33721;48.852;9.936;2023-03-25T06:21:28;6.60;99.90
47961;DHT22;33721;48.852;9.936;2023-03-25T06:23:56;6.60;99.90
47961;DHT22;33721;48.852;9.936;2023-03-25T06:26:22;6.70;99.90
47961;DHT22;33721;48.852;9.936;2023-03-25T06:28:48;6.70;99.90
47961;DHT22;33721;48.852;9.936;2023-03-25T06:31:16;6.70;99.90
47961;DHT22;33721;48.852;9.936;2023-03-25T06:33:43;6.80;99.90
47961;DHT22;33721;48.852;9.936;2023-03-25T06:36:10;6.90;99.90
47961;DHT22;33721;48.852;9.936;2023-03-25T06:38:37;7.00;99.90
47961;DHT22;33721;48.852;9.936;2023-03-25T06:41:03;7.00;99.90
47961;DHT22;33721;48.852;9.936;2023-03-25T06:43:29;7.10;99.90
47961;DHT22;33721;48.852;9.936;2023-03-25T06:45:55;7.20;99.90
47961;DHT22;33721;48.852;9.936;2023-03-25T06:48:20;7.20;99.90
47961;DHT22;33721;48.852;9.936;2023-03-25T06:50:46;7.20;99.90
47961;DHT22;33721;48.852;9.936;2023-03-25T06:53:12;7.20;99.90
47961;DHT22;33721;48.852;9.936;2023-03-25T06:55:37;7.30;99.90
47961;DHT22;33721;48.852;9.936;2023-03-25T06:58:04;7.30;99.90
47961;DHT22;33721;48.852;9.936;2023-03-25T07:00:30;7.40;99.90
47961;DHT22;33721;48.852;9.936;2023-03-25T07:02:55;7.40;99.90
47961;DHT22;33721;48.852;9.936;2023-03-25T07:05:23;7.30;99.90
47961;DHT22;33721;48.852;9.936;2023-03-25T07:07:49;7.30;99.90
47961;DHT22;33721;48.852;9.936;2023-03-25T07:10:15;7.20;99.90
47961;DHT22;33721;48.852;9.936;2023-03-25T07:12:40;7.20;99.90
47961;DHT22;33721;48.852;9.936;2023-03-25T07:15:07;7.40;99.90
47961;DHT22;33721;48.852;9.936;2023-03-25T07:17:33;7.50;99.90
47961;DHT22;33721;48.852;9.936;2023-03-25T07:19:58;7.60;99.90
47961;DHT22;33721;48.852;9.936;2023-03-25T07:22:24;7.60;99.90
47961;DHT22;33721;48.852;9.936;2023-03-25T07:24:50;7.80;99.90
47961;DHT22;33721;48.852;9.936;2023-03-25T07:27:17;7.90;99.90
47961;DHT22;33721;48.852;9.936;2023-03-25T07:29:42;8.10;99.90
47961;DHT22;33721;48.852;9.936;2023-03-25T07:32:08;8.20;99.90
47961;DHT22;33721;48.852;9.936;2023-03-25T07:34:33;8.20;99.90
47961;DHT22;33721;48.852;9.936;2023-03-25T07:36:59;8.30;99.90
47961;DHT22;33721;48.852;9.936;2023-03-25T07:39:25;8.10;99.90
47961;DHT22;33721;48.852;9.936;2023-03-25T07:41:51;8.20;99.90
47961;DHT22;33721;48.852;9.936;2023-03-25T07:44:20;8.40;99.90
47961;DHT22;33721;48.852;9.936;2023-03-25T07:46:46;8.40;99.90
47961;DHT22;33721;48.852;9.936;2023-03-25T07:49:13;8.50;99.90
47961;DHT22;33721;48.852;9.936;2023-03-25T07:51:38;8.50;99.90
47961;DHT22;33721;48.852;9.936;2023-03-25T07:54:04;8.30;99.90
47961;DHT22;33721;48.852;9.936;2023-03-25T07:56:30;8.20;99.90
47961;DHT22;33721;48.852;9.936;2023-03-25T07:58:56;8.30;99.90
47961;DHT22;33721;48.852;9.936;2023-03-25T08:01:21;8.40;99.90
47961;DHT22;33721;48.852;9.936;2023-03-25T08:03:47;8.30;99.90
47961;DHT22;33721;48.852;9.936;2023-03-25T08:06:12;8.20;99.90
47961;DHT22;33721;48.852;9.936;2023-03-25T08:08:38;8.10;99.90
47961;DHT22;33721;48.852;9.936;2023-03-25T08:11:04;8.10;99.90
47961;DHT22;33721;48.852;9.936;2023-03-25T08:13:30;8.00;99.90
47961;DHT22;33721;48.852;9.936;2023-03-25T08:15:56;8.00;99.90
47961;DHT22;33721;48.852;9.936;2023-03-25T08:18:22;7.90;99.90
47961;DHT22;33721;48.852;9.936;2023-03-25T08:20:48;7.80;99.90
47961;DHT22;33721;48.852;9.936;2023-03-25T08:23:15;7.80;99.90
47961;DHT22;33721;48.852;9.936;2023-03-25T08:25:43;7.80;99.90
47961;DHT22;33721;48.852;9.936;2023-03-25T08:28:09;8.00;99.90
47961;DHT22;33721;48.852;9.936;2023-03-25T08:30:35;8.00;99.90
47961;DHT22;33721;48.852;9.936;2023-03-25T08:33:05;8.20;99.90
47961;DHT22;33721;48.852;9.936;2023-03-25T08:35:32;8.40;99.90
47961;DHT22;33721;48.852;9.936;2023-03-25T08:37:58;8.50;99.90
47961;DHT22;33721;48.852;9.936;2023-03-25T08:40:26;8.70;99.90
47961;DHT22;33721;48.852;9.936;2023-03-25T08:42:52;9.00;99.90
47961;DHT22;33721;48.852;9.936;2023-03-25T08:45:18;9.10;99.90
47961;DHT22;33721;48.852;9.936;2023-03-25T08:47:43;9.00;99.90
47961;DHT22;33721;48.852;9.936;2023-03-25T08:50:11;9.30;99.90
47961;DHT22;33721;48.852;9.936;2023-03-25T08:52:36;9.30;99.90
47961;DHT22;33721;48.852;9.936;2023-03-25T08:55:03;9.00;99.90
47961;DHT22;33721;48.852;9.936;2023-03-25T08:57:29;9.00;99.90
47961;DHT22;33721;48.852;9.936;2023-03-25T08:59:55;8.90;99.90
47961;DHT22;33721;48.852;9.936;2023-03-25T09:02:20;8.90;99.90
47961;DHT22;33721;48.852;9.936;2023-03-25T09:04:49;9.10;99.90
47961;DHT22;33721;48.852;9.936;2023-03-25T09:07:15;9.20;99.90
47961;DHT22;33721;48.852;9.936;2023-03-25T09:09:44;9.40;99.90
47961;DHT22;33721;48.852;9.936;2023-03-25T09:12:10;9.70;99.90
47961;DHT22;33721;48.852;9.936;2023-03-25T09:14:35;9.70;99.90
47961;DHT22;33721;48.852;9.936;2023-03-25T09:17:01;9.50;99.90
47961;DHT22;33721;48.852;9.936;2023-03-25T09:19:27;9.50;99.90
47961;DHT22;33721;48.852;9.936;2023-03-25T09:21:53;9.40;99.90
47961;DHT22;33721;48.852;9.936;2023-03-25T09:24:19;9.20;99.90
47961;DHT22;33721;48.852;9.936;2023-03-25T09:26:49;9.00;99.90
47961;DHT22;33721;48.852;9.936;2023-03-25T09:29:15;8.90;99.90
47961;DHT22;33721;48.852;9.936;2023-03-25T09:31:41;8.60;99.90
47961;DHT22;33721;48.852;9.936;2023-03-25T09:34:07;8.40;99.90
47961;DHT22;33721;48.852;9.936;2023-03-25T09:36:32;8.20;99.90
47961;DHT22;33721;48.852;9.936;2023-03-25T09:38:58;8.00;99.90
47961;DHT22;33721;48.852;9.936;2023-03-25T09:44:18;7.70;99.90
47961;DHT22;33721;48.852;9.936;2023-03-25T09:46:45;7.70;99.90
47961;DHT22;33721;48.852;9.936;2023-03-25T09:49:24;7.60;99.90
47961;DHT22;33721;48.852;9.936;2023-03-25T09:51:52;7.60;99.90
47961;DHT22;33721;48.852;9.936;2023-03-25T09:54:30;7.60;99.90
47961;DHT22;33721;48.852;9.936;2023-03-25T09:57:01;7.70;99.90
47961;DHT22;33721;48.852;9.936;2023-03-25T09:59:46;7.70;99.90
47961;DHT22;33721;48.852;9.936;2023-03-25T10:10:56;8.20;99.90
47961;DHT22;33721;48.852;9.936;2023-03-25T10:22:02;8.60;99.90
47961;DHT22;33721;48.852;9.936;2023-03-25T10:25:32;8.70;99.90
47961;DHT22;33721;48.852;9.936;2023-03-25T10:27:38;8.60;99.90
47961;DHT22;33721;48.852;9.936;2023-03-25T10:32:43;9.00;99.90
47961;DHT22;33721;48.852;9.936;2023-03-25T10:35:43;9.30;99.90
47961;DHT22;33721;48.852;9.936;2023-03-25T10:38:16;9.70;99.90
47961;DHT22;33721;48.852;9.936;2023-03-25T10:40:49;9.80;99.90
47961;DHT22;33721;48.852;9.936;2023-03-25T10:43:30;9.90;99.90
47961;DHT22;33721;48.852;9.936;2023-03-25T10:48:30;10.30;99.90
47961;DHT22;33721;48.852;9.936;2023-03-25T10:51:09;10.50;99.90
47961;DHT22;33721;48.852;9.936;2023-03-25T10:53:36;10.20;99.90
47961;DHT22;33721;48.852;9.936;2023-03-25T10:56:14;9.90;99.90
47961;DHT22;33721;48.852;9.936;2023-03-25T10:58:44;10.20;99.90
47961;DHT22;33721;48.852;9.936;2023-03-25T11:01:15;10.50;99.90
47961;DHT22;33721;48.852;9.936;2023-03-25T11:03:42;10.60;99.90
47961;DHT22;33721;48.852;9.936;2023-03-25T11:06:21;10.70;99.90
47961;DHT22;33721;48.852;9.936;2023-03-25T11:11:34;10.60;99.90
47961;DHT22;33721;48.852;9.936;2023-03-25T11:14:00;10.30;99.90
47961;DHT22;33721;48.852;9.936;2023-03-25T11:16:35;10.20;99.90
47961;DHT22;33721;48.852;9.936;2023-03-25T11:19:04;10.20;99.90
47961;DHT22;33721;48.852;9.936;2023-03-25T11:21:32;10.10;99.90
47961;DHT22;33721;48.852;9.936;2023-03-25T11:24:00;10.10;99.90
47961;DHT22;33721;48.852;9.936;2023-03-25T11:26:28;10.10;99.90
47961;DHT22;33721;48.852;9.936;2023-03-25T11:29:05;10.20;99.90
47961;DHT22;33721;48.852;9.936;2023-03-25T11:31:36;10.20;99.90
47961;DHT22;33721;48.852;9.936;2023-03-25T11:36:38;10.40;99.90
47961;DHT22;33721;48.852;9.936;2023-03-25T11:39:17;10.20;99.90
47961;DHT22;33721;48.852;9.936;2023-03-25T11:41:44;10.20;99.90
47961;DHT22;33721;48.852;9.936;2023-03-25T11:44:21;10.10;99.90
47961;DHT22;33721;48.852;9.936;2023-03-25T11:46:51;10.00;99.90
47961;DHT22;33721;48.852;9.936;2023-03-25T11:49:20;9.80;99.90
47961;DHT22;33721;48.852;9.936;2023-03-25T11:51:49;9.60;99.90
47961;DHT22;33721;48.852;9.936;2023-03-25T11:54:16;9.40;99.90
47961;DHT22;33721;48.852;9.936;2023-03-25T11:56:43;8.90;99.90
47961;DHT22;33721;48.852;9.936;2023-03-25T11:59:26;8.40;99.90
47961;DHT22;33721;48.852;9.936;2023-03-25T12:02:11;8.30;99.90
47961;DHT22;33721;48.852;9.936;2023-03-25T12:05:03;8.30;99.90
47961;DHT22;33721;48.852;9.936;2023-03-25T12:07:50;8.30;99.90
47961;DHT22;33721;48.852;9.936;2023-03-25T12:12:59;8.80;99.90
47961;DHT22;33721;48.852;9.936;2023-03-25T12:18:06;9.20;99.90
47961;DHT22;33721;48.852;9.936;2023-03-25T12:23:50;9.70;99.90
47961;DHT22;33721;48.852;9.936;2023-03-25T12:45:22;9.90;99.90
47961;DHT22;33721;48.852;9.936;2023-03-25T12:47:35;10.00;99.90
47961;DHT22;33721;48.852;9.936;2023-03-25T12:55:33;9.60;99.90
47961;DHT22;33721;48.852;9.936;2023-03-25T13:01:10;9.90;99.90
47961;DHT22;33721;48.852;9.936;2023-03-25T13:12:00;10.40;99.90
47961;DHT22;33721;48.852;9.936;2023-03-25T13:15:01;10.30;99.90
47961;DHT22;33721;48.852;9.936;2023-03-25T13:17:33;10.20;99.90
47961;DHT22;33721;48.852;9.936;2023-03-25T13:20:01;10.00;99.90
47961;DHT22;33721;48.852;9.936;2023-03-25T13:22:40;9.90;99.90
47961;DHT22;33721;48.852;9.936;2023-03-25T13:25:17;9.80;99.90
47961;DHT22;33721;48.852;9.936;2023-03-25T13:27:44;9.70;99.90
47961;DHT22;33721;48.852;9.936;2023-03-25T13:30:31;9.80;99.90
47961;DHT22;33721;48.852;9.936;2023-03-25T13:33:04;9.70;99.90
47961;DHT22;33721;48.852;9.936;2023-03-25T13:38:58;10.10;99.90
47961;DHT22;33721;48.852;9.936;2023-03-25T13:41:30;10.60;99.90
47961;DHT22;33721;48.852;9.936;2023-03-25T13:44:22;11.00;99.90
47961;DHT22;33721;48.852;9.936;2023-03-25T13:47:04;11.30;99.90
47961;DHT22;33721;48.852;9.936;2023-03-25T13:49:51;11.40;99.90
47961;DHT22;33721;48.852;9.936;2023-03-25T13:52:19;11.30;99.90
47961;DHT22;33721;48.852;9.936;2023-03-25T13:54:57;11.20;99.90
47961;DHT22;33721;48.852;9.936;2023-03-25T14:02:51;10.50;99.90
47961;DHT22;33721;48.852;9.936;2023-03-25T14:13:28;10.60;99.90
47961;DHT22;33721;48.852;9.936;2023-03-25T14:16:04;11.10;99.90
47961;DHT22;33721;48.852;9.936;2023-03-25T14:18:32;10.90;99.90
47961;DHT22;33721;48.852;9.936;2023-03-25T14:21:27;11.10;99.90
47961;DHT22;33721;48.852;9.936;2023-03-25T14:24:11;11.20;99.90
47961;DHT22;33721;48.852;9.936;2023-03-25T14:27:05;11.40;99.90
47961;DHT22;33721;48.852;9.936;2023-03-25T14:29:58;11.40;99.90
47961;DHT22;33721;48.852;9.936;2023-03-25T14:32:29;10.80;99.90
47961;DHT22;33721;48.852;9.936;2023-03-25T14:43:37;10.70;99.90
47961;DHT22;33721;48.852;9.936;2023-03-25T14:48:44;10.50;99.90
47961;DHT22;33721;48.852;9.936;2023-03-25T14:53:58;10.40;99.90
47961;DHT22;33721;48.852;9.936;2023-03-25T14:56:33;10.40;99.90
47961;DHT22;33721;48.852;9.936;2023-03-25T14:59:11;10.30;99.90
47961;DHT22;33721;48.852;9.936;2023-03-25T15:01:39;9.80;99.90
47961;DHT22;33721;48.852;9.936;2023-03-25T15:04:13;9.50;99.90
47961;DHT22;33721;48.852;9.936;2023-03-25T15:06:41;9.70;99.90
47961;DHT22;33721;48.852;9.936;2023-03-25T15:09:10;9.60;99.90
47961;DHT22;33721;48.852;9.936;2023-03-25T15:11:51;9.60;99.90
47961;DHT22;33721;48.852;9.936;2023-03-25T15:14:25;9.90;99.90
47961;DHT22;33721;48.852;9.936;2023-03-25T15:17:01;10.00;99.90
47961;DHT22;33721;48.852;9.936;2023-03-25T15:22:27;9.90;99.90
47961;DHT22;33721;48.852;9.936;2023-03-25T15:24:57;10.00;99.90
47961;DHT22;33721;48.852;9.936;2023-03-25T15:38:33;10.20;99.90
47961;DHT22;33721;48.852;9.936;2023-03-25T15:41:26;10.40;99.90
47961;DHT22;33721;48.852;9.936;2023-03-25T15:55:29;10.60;99.90
47961;DHT22;33721;48.852;9.936;2023-03-25T15:58:02;10.60;99.90
47961;DHT22;33721;48.852;9.936;2023-03-25T16:00:32;10.70;99.90
47961;DHT22;33721;48.852;9.936;2023-03-25T16:05:32;10.80;99.90
47961;DHT22;33721;48.852;9.936;2023-03-25T16:08:04;10.70;99.90
47961;DHT22;33721;48.852;9.936;2023-03-25T16:10:32;10.70;99.90
47961;DHT22;33721;48.852;9.936;2023-03-25T16:13:11;10.60;99.90
47961;DHT22;33721;48.852;9.936;2023-03-25T16:15:39;10.60;99.90
47961;DHT22;33721;48.852;9.936;2023-03-25T16:18:06;10.60;99.90
47961;DHT22;33721;48.852;9.936;2023-03-25T16:20:35;10.60;99.90
47961;DHT22;33721;48.852;9.936;2023-03-25T16:23:03;10.60;99.90
47961;DHT22;33721;48.852;9.936;2023-03-25T16:28:00;10.50;99.90
47961;DHT22;33721;48.852;9.936;2023-03-25T16:30:35;10.60;99.90
47961;DHT22;33721;48.852;9.936;2023-03-25T16:35:37;10.40;99.90
47961;DHT22;33721;48.852;9.936;2023-03-25T16:38:04;10.30;99.90
47961;DHT22;33721;48.852;9.936;2023-03-25T16:40:35;10.30;99.90
47961;DHT22;33721;48.852;9.936;2023-03-25T16:43:02;10.20;99.90
47961;DHT22;33721;48.852;9.936;2023-03-25T16:45:29;10.20;99.90
47961;DHT22;33721;48.852;9.936;2023-03-25T16:47:55;10.20;99.90
47961;DHT22;33721;48.852;9.936;2023-03-25T16:50:22;10.30;99.90
47961;DHT22;33721;48.852;9.936;2023-03-25T16:52:49;10.20;99.90
47961;DHT22;33721;48.852;9.936;2023-03-25T16:55:29;10.20;99.90
47961;DHT22;33721;48.852;9.936;2023-03-25T16:57:58;10.10;99.90
47961;DHT22;33721;48.852;9.936;2023-03-25T17:00:37;10.00;99.90
47961;DHT22;33721;48.852;9.936;2023-03-25T17:03:04;10.00;99.90
47961;DHT22;33721;48.852;9.936;2023-03-25T17:05:30;9.90;99.90
47961;DHT22;33721;48.852;9.936;2023-03-25T17:08:00;9.80;99.90
47961;DHT22;33721;48.852;9.936;2023-03-25T17:10:53;9.80;99.90
47961;DHT22;33721;48.852;9.936;2023-03-25T17:13:26;9.70;99.90
47961;DHT22;33721;48.852;9.936;2023-03-25T17:15:53;9.70;99.90
47961;DHT22;33721;48.852;9.936;2023-03-25T17:18:19;9.60;99.90
47961;DHT22;33721;48.852;9.936;2023-03-25T17:20:48;9.60;99.90
47961;DHT22;33721;48.852;9.936;2023-03-25T17:23:24;9.50;99.90
47961;DHT22;33721;48.852;9.936;2023-03-25T17:33:51;9.20;99.90
47961;DHT22;33721;48.852;9.936;2023-03-25T17:36:18;9.30;99.90
47961;DHT22;33721;48.852;9.936;2023-03-25T17:38:46;9.20;99.90
47961;DHT22;33721;48.852;9.936;2023-03-25T17:41:14;9.30;99.90
47961;DHT22;33721;48.852;9.936;2023-03-25T17:43:53;9.20;99.90
47961;DHT22;33721;48.852;9.936;2023-03-25T17:46:22;9.20;99.90
47961;DHT22;33721;48.852;9.936;2023-03-25T17:48:48;9.20;99.90
47961;DHT22;33721;48.852;9.936;2023-03-25T17:51:16;9.20;99.90
47961;DHT22;33721;48.852;9.936;2023-03-25T17:53:42;9.10;99.90
47961;DHT22;33721;48.852;9.936;2023-03-25T17:56:12;9.10;99.90
47961;DHT22;33721;48.852;9.936;2023-03-25T17:58:40;9.10;99.90
47961;DHT22;33721;48.852;9.936;2023-03-25T18:01:08;9.10;99.90
47961;DHT22;33721;48.852;9.936;2023-03-25T18:03:34;9.10;99.90
47961;DHT22;33721;48.852;9.936;2023-03-25T18:06:00;9.00;99.90
47961;DHT22;33721;48.852;9.936;2023-03-25T18:08:26;9.00;99.90
47961;DHT22;33721;48.852;9.936;2023-03-25T18:10:54;9.00;99.90
47961;DHT22;33721;48.852;9.936;2023-03-25T18:13:21;8.90;99.90
47961;DHT22;33721;48.852;9.936;2023-03-25T18:15:48;8.90;99.90
47961;DHT22;33721;48.852;9.936;2023-03-25T18:18:22;8.90;99.90
47961;DHT22;33721;48.852;9.936;2023-03-25T18:20:49;8.90;99.90
47961;DHT22;33721;48.852;9.936;2023-03-25T18:23:16;8.90;99.90
47961;DHT22;33721;48.852;9.936;2023-03-25T18:25:42;8.90;99.90
47961;DHT22;33721;48.852;9.936;2023-03-25T18:28:13;8.80;99.90
47961;DHT22;33721;48.852;9.936;2023-03-25T18:30:46;8.80;99.90
47961;DHT22;33721;48.852;9.936;2023-03-25T18:33:14;8.70;99.90
47961;DHT22;33721;48.852;9.936;2023-03-25T18:35:40;8.70;99.90
47961;DHT22;33721;48.852;9.936;2023-03-25T18:40:43;8.70;99.90
47961;DHT22;33721;48.852;9.936;2023-03-25T18:43:09;8.70;99.90
47961;DHT22;33721;48.852;9.936;2023-03-25T18:45:35;8.70;99.90
47961;DHT22;33721;48.852;9.936;2023-03-25T18:48:02;8.80;99.90
47961;DHT22;33721;48.852;9.936;2023-03-25T18:50:35;8.70;99.90
47961;DHT22;33721;48.852;9.936;2023-03-25T18:53:02;8.70;99.90
47961;DHT22;33721;48.852;9.936;2023-03-25T18:55:30;8.70;99.90